Time;durP1;ratioP1;P1;durP2;ratioP2;P2;SDS_P1;SDS_P2;PMS_P1;PMS_P2;Temp;Humidity;BMP_temperature;BMP_pressure;BME280_temperature;BME280_humidity;BME280_pressure;Samples;Min_cycle;Max_cycle;Signal;HPM_P1;HPM_P2
2024/03/08 00:00:09;;;;;;;65.30;36.60;;;;;;;-1.81;81.38;102417.70;109180;1254;74701;-62
2024/03/08 00:02:36;;;;;;;66.70;36.80;;;;;;;-1.83;81.39;102412.36;109118;1256;138407;-62
2024/03/08 00:05:05;;;;;;;69.40;35.50;;;;;;;-1.84;81.38;102414.85;109149;1253;70822;-63
2024/03/08 00:07:32;;;;;;;71.00;36.40;;;;;;;-1.84;81.50;102411.71;108979;1253;138755;-61
2024/03/08 00:09:59;;;;;;;67.00;35.80;;;;;;;-1.85;81.36;102407.38;104761;1254;61901;-61
2024/03/08 00:12:26;;;;;;;64.30;34.60;;;;;;;-1.86;81.47;102405.71;104080;1254;75243;-62
2024/03/08 00:14:54;;;;;;;70.40;35.40;;;;;;;-1.87;81.43;102404.36;104132;1254;139590;-63
2024/03/08 00:17:25;;;;;;;68.90;37.40;;;;;;;-1.88;81.56;102402.70;108432;1254;72739;-63
2024/03/08 00:19:51;;;;;;;72.40;38.30;;;;;;;-1.90;81.54;102401.86;107984;1256;139414;-63
2024/03/08 00:22:18;;;;;;;65.90;37.30;;;;;;;-1.92;81.52;102398.25;109076;1254;60460;-63
2024/03/08 00:24:45;;;;;;;70.90;35.50;;;;;;;-1.93;81.50;102399.60;109142;1254;75605;-63
2024/03/08 00:27:12;;;;;;;72.40;38.10;;;;;;;-1.95;81.43;102400.27;109043;1254;138262;-62
2024/03/08 00:29:38;;;;;;;72.10;37.00;;;;;;;-1.97;81.55;102397.05;109209;1254;71436;-63
2024/03/08 00:32:07;;;;;;;65.00;37.40;;;;;;;-1.99;81.58;102398.92;106160;1254;138633;-62
2024/03/08 00:34:37;;;;;;;72.00;40.20;;;;;;;-2.00;81.48;102396.19;105034;1256;61342;-62
2024/03/08 00:37:04;;;;;;;71.90;38.20;;;;;;;-2.01;81.69;102398.34;104860;1258;139085;-62
2024/03/08 00:39:30;;;;;;;70.40;38.90;;;;;;;-2.03;81.56;102395.20;105957;1257;67361;-63
2024/03/08 00:41:57;;;;;;;75.10;38.60;;;;;;;-2.05;81.69;102394.27;104697;1254;73292;-63
2024/03/08 00:44:24;;;;;;;73.60;39.20;;;;;;;-2.08;81.59;102393.15;104462;1254;138675;-63
2024/03/08 00:46:51;;;;;;;77.50;40.30;;;;;;;-2.10;81.63;102394.25;104068;1259;61171;-62
2024/03/08 00:49:18;;;;;;;80.60;40.80;;;;;;;-2.15;81.75;102390.27;103982;1253;139769;-63
2024/03/08 00:51:45;;;;;;;77.40;40.40;;;;;;;-2.17;81.91;102388.98;105012;1256;65755;-63
2024/03/08 00:54:11;;;;;;;77.90;41.80;;;;;;;-2.20;81.96;102388.99;104966;1259;73234;-63
2024/03/08 00:56:39;;;;;;;69.70;39.70;;;;;;;-2.23;81.88;102383.06;104736;1258;139844;-63
2024/03/08 00:59:07;;;;;;;72.30;40.80;;;;;;;-2.25;81.97;102383.81;104584;1256;61308;-63
2024/03/08 01:01:33;;;;;;;77.60;40.00;;;;;;;-2.28;81.97;102381.52;104674;1258;139298;-63
2024/03/08 01:04:00;;;;;;;72.40;39.00;;;;;;;-2.31;82.09;102377.77;104838;1256;64747;-63
2024/03/08 01:06:27;;;;;;;73.70;40.30;;;;;;;-2.32;82.18;102378.61;105093;1258;72582;-63
2024/03/08 01:08:54;;;;;;;74.50;40.10;;;;;;;-2.36;82.14;102375.54;104986;1256;138651;-62
2024/03/08 01:11:20;;;;;;;70.70;38.30;;;;;;;-2.38;82.05;102371.73;105025;1256;61335;-62
2024/03/08 01:13:47;;;;;;;75.60;39.50;;;;;;;-2.40;82.34;102370.33;104727;1255;138874;-62
2024/03/08 01:16:13;;;;;;;78.80;40.40;;;;;;;-2.40;82.23;102367.88;104768;1255;65449;-62
2024/03/08 01:18:40;;;;;;;77.30;39.50;;;;;;;-2.42;82.49;102366.69;104032;1256;72361;-62
2024/03/08 01:21:07;;;;;;;72.40;36.40;;;;;;;-2.42;82.48;102363.50;104193;1258;140395;-61
2024/03/08 01:23:34;;;;;;;71.20;37.80;;;;;;;-2.42;82.58;102361.19;105047;1259;61304;-61
2024/03/08 01:26:02;;;;;;;68.90;37.60;;;;;;;-2.42;82.61;102358.10;109099;1253;138622;-62
2024/03/08 01:28:28;;;;;;;76.40;37.70;;;;;;;-2.42;82.67;102353.72;105940;1259;64819;-61
2024/03/08 01:30:55;;;;;;;71.30;38.90;;;;;;;-2.42;82.65;102353.38;104934;1257;138910;-61
2024/03/08 01:33:25;;;;;;;68.70;36.00;;;;;;;-2.42;82.74;102353.52;104767;1258;61104;-62
2024/03/08 01:35:53;;;;;;;67.40;36.50;;;;;;;-2.43;82.70;102352.14;109013;1254;59332;-62
2024/03/08 01:38:23;;;;;;;69.60;36.40;;;;;;;-2.43;82.66;102350.36;109074;1257;139432;-62
2024/03/08 01:40:50;;;;;;;68.10;36.70;;;;;;;-2.44;82.72;102350.41;109080;1257;66089;-62
2024/03/08 01:43:28;;;;;;;63.70;34.00;;;;;;;-2.45;82.73;102346.94;108559;1258;139193;-61
2024/03/08 01:45:55;;;;;;;65.70;35.30;;;;;;;-2.44;82.67;102342.99;108410;1259;59310;-61
2024/03/08 01:48:23;;;;;;;66.60;35.90;;;;;;;-2.44;82.68;102338.55;108829;1254;60266;-61
2024/03/08 01:50:50;;;;;;;64.40;35.80;;;;;;;-2.44;82.55;102339.90;104540;1258;140686;-63
2024/03/08 01:53:17;;;;;;;67.70;36.80;;;;;;;-2.44;82.62;102338.23;104879;1255;65340;-64
2024/03/08 01:55:45;;;;;;;72.20;37.80;;;;;;;-2.46;82.71;102335.30;104728;1255;139165;-64
2024/03/08 01:58:15;;;;;;;81.40;37.60;;;;;;;-2.47;82.49;102332.41;109147;1256;60411;-63
2024/03/08 02:00:43;;;;;;;62.20;38.10;;;;;;;-2.48;82.61;102331.79;108768;1259;61330;-61
2024/03/08 02:03:10;;;;;;;68.30;39.00;;;;;;;-2.49;82.53;102332.23;105366;1260;138324;-63
2024/03/08 02:05:38;;;;;;;69.60;37.00;;;;;;;-2.49;82.55;102328.92;108869;1254;65124;-63
2024/03/08 02:08:07;;;;;;;74.60;37.50;;;;;;;-2.49;82.63;102327.80;108534;1254;138571;-64
2024/03/08 02:10:34;;;;;;;71.40;37.80;;;;;;;-2.49;82.61;102326.40;109039;1258;59453;-64
2024/03/08 02:13:03;;;;;;;67.20;38.40;;;;;;;-2.49;82.60;102329.95;109073;1254;139936;-64
2024/03/08 02:15:55;;;;;;;70.80;38.20;;;;;;;-2.51;82.61;102328.95;109246;1254;74396;-64
2024/03/08 02:18:23;;;;;;;74.40;37.80;;;;;;;-2.52;82.61;102326.55;109271;1253;64876;-64
2024/03/08 02:20:53;;;;;;;65.80;37.40;;;;;;;-2.53;82.50;102324.23;109069;1258;139386;-64
2024/03/08 02:23:20;;;;;;;72.40;39.00;;;;;;;-2.55;82.64;102320.46;108972;1255;59440;-64
2024/03/08 02:25:47;;;;;;;74.80;40.50;;;;;;;-2.56;82.66;102316.97;108717;1254;139056;-64
2024/03/08 02:28:14;;;;;;;68.70;40.00;;;;;;;-2.55;82.68;102316.48;108429;1259;74734;-63
2024/03/08 02:30:41;;;;;;;79.80;41.30;;;;;;;-2.56;82.70;102316.93;108525;1253;67554;-62
2024/03/08 02:33:09;;;;;;;72.30;39.00;;;;;;;-2.56;82.69;102318.99;108708;1257;138982;-62
2024/03/08 02:35:36;;;;;;;71.10;40.00;;;;;;;-2.56;82.67;102319.13;108974;1258;59315;-62
2024/03/08 02:38:03;;;;;;;77.00;42.10;;;;;;;-2.56;82.70;102321.36;108950;1254;139170;-63
2024/03/08 02:40:30;;;;;;;72.90;39.90;;;;;;;-2.57;82.72;102317.05;108622;1255;75705;-63
2024/03/08 02:42:57;;;;;;;78.50;41.20;;;;;;;-2.55;82.83;102314.42;108382;1254;140108;-62
2024/03/08 02:45:24;;;;;;;70.40;39.30;;;;;;;-2.55;82.72;102312.91;108399;1256;74993;-62
2024/03/08 02:47:51;;;;;;;72.90;40.10;;;;;;;-2.54;82.96;102308.66;108640;1256;59449;-62
2024/03/08 02:50:18;;;;;;;71.30;39.80;;;;;;;-2.53;82.99;102307.06;109054;1254;138550;-63
2024/03/08 02:52:46;;;;;;;67.00;38.00;;;;;;;-2.54;82.93;102301.50;109139;1258;74187;-63
2024/03/08 02:55:16;;;;;;;71.00;39.10;;;;;;;-2.55;82.90;102303.84;109088;1254;138624;-61
2024/03/08 02:57:47;;;;;;;71.10;39.90;;;;;;;-2.55;82.98;102300.72;109179;1257;71314;-61
2024/03/08 03:00:15;;;;;;;71.60;37.10;;;;;;;-2.56;82.98;102300.77;108920;1254;60300;-61
2024/03/08 03:02:42;;;;;;;59.50;35.20;;;;;;;-2.56;82.89;102297.30;108803;1254;139030;-61
2024/03/08 03:05:09;;;;;;;62.40;36.20;;;;;;;-2.56;82.94;102297.48;108876;1254;75682;-62
2024/03/08 03:07:37;;;;;;;65.10;38.00;;;;;;;-2.58;82.89;102291.00;108783;1254;139584;-62
2024/03/08 03:10:04;;;;;;;67.30;37.10;;;;;;;-2.59;82.97;102288.97;109146;1257;72035;-61
2024/03/08 03:12:31;;;;;;;64.00;37.30;;;;;;;-2.60;82.99;102288.66;109176;1253;59013;-61
2024/03/08 03:14:58;;;;;;;67.10;38.00;;;;;;;-2.61;82.96;102287.39;108887;1257;138603;-61
2024/03/08 03:17:24;;;;;;;66.30;37.90;;;;;;;-2.61;83.03;102289.19;109244;1253;75934;-61
2024/03/08 03:19:54;;;;;;;65.80;38.30;;;;;;;-2.61;82.99;102289.55;109077;1254;138749;-61
2024/03/08 03:22:21;;;;;;;61.50;34.30;;;;;;;-2.61;82.98;102290.27;109222;1254;71787;-62
2024/03/08 03:24:47;;;;;;;69.40;37.00;;;;;;;-2.60;82.90;102288.63;108793;1258;59031;-62
2024/03/08 03:27:15;;;;;;;71.60;36.70;;;;;;;-2.60;82.99;102287.63;108267;1256;138587;-62
2024/03/08 03:29:45;;;;;;;67.60;35.70;;;;;;;-2.59;82.87;102289.60;108788;1254;73523;-63
2024/03/08 03:32:12;;;;;;;64.50;34.10;;;;;;;-2.58;82.95;102287.48;108460;1255;139616;-64
2024/03/08 03:34:39;;;;;;;61.10;36.30;;;;;;;-2.56;82.94;102287.55;109172;1254;73154;-62
2024/03/08 03:37:12;;;;;;;66.50;35.20;;;;;;;-2.52;83.09;102288.44;109076;1254;139689;-61
2024/03/08 03:39:48;;;;;;;71.50;36.80;;;;;;;-2.44;83.34;102290.27;109236;1254;60489;-61
2024/03/08 03:42:16;;;;;;;66.60;35.90;;;;;;;-2.35;83.38;102288.30;109194;1255;73470;-62
2024/03/08 03:44:47;;;;;;;65.10;35.70;;;;;;;-2.24;83.45;102287.50;109139;1254;139082;-62
2024/03/08 03:47:17;;;;;;;61.30;35.20;;;;;;;-2.09;83.60;102289.31;108905;1254;72805;-62
2024/03/08 03:49:44;;;;;;;64.70;34.00;;;;;;;-1.93;83.68;102286.45;108764;1253;138458;-61
2024/03/08 03:52:11;;;;;;;62.10;35.50;;;;;;;-1.78;83.73;102289.28;108767;1253;60093;-62
2024/03/08 03:54:38;;;;;;;61.20;35.40;;;;;;;-1.65;83.74;102283.33;108827;1254;74429;-62
2024/03/08 03:57:05;;;;;;;63.20;34.70;;;;;;;-1.54;83.61;102283.41;109102;1257;138605;-62
2024/03/08 03:59:31;;;;;;;63.40;35.50;;;;;;;-1.42;83.62;102279.95;109197;1254;72042;-63
2024/03/08 04:01:58;;;;;;;62.70;34.60;;;;;;;-1.33;83.29;102276.09;108997;1254;139339;-62
2024/03/08 04:04:25;;;;;;;65.40;35.30;;;;;;;-1.28;83.02;102275.56;108941;1254;61553;-62
2024/03/08 04:06:51;;;;;;;60.10;34.40;;;;;;;-1.25;83.04;102271.20;109190;1254;74674;-60
2024/03/08 04:09:19;;;;;;;67.10;34.80;;;;;;;-1.22;82.77;102272.96;109172;1254;66942;-62
2024/03/08 04:11:45;;;;;;;65.90;34.00;;;;;;;-1.18;82.88;102272.15;107354;1257;71471;-61
2024/03/08 04:14:13;;;;;;;61.90;35.30;;;;;;;-1.12;82.58;102273.67;104714;1260;139732;-61
2024/03/08 04:16:40;;;;;;;58.70;34.80;;;;;;;-1.11;82.65;102268.83;108639;1254;60193;-62
2024/03/08 04:19:06;;;;;;;67.60;35.10;;;;;;;-1.14;82.38;102268.53;108648;1253;138629;-61
2024/03/08 04:21:33;;;;;;;62.40;35.50;;;;;;;-1.21;82.11;102266.48;108735;1254;64633;-63
2024/03/08 04:24:00;;;;;;;62.20;35.90;;;;;;;-1.28;82.13;102268.14;108524;1259;71027;-63
2024/03/08 04:26:27;;;;;;;64.80;35.80;;;;;;;-1.33;81.97;102265.60;104560;1254;137973;-62
2024/03/08 04:28:54;;;;;;;68.50;36.40;;;;;;;-1.38;81.91;102266.73;105023;1259;60887;-62
2024/03/08 04:31:21;;;;;;;59.70;33.20;;;;;;;-1.45;81.69;102267.20;104936;1258;138730;-63
2024/03/08 04:33:48;;;;;;;62.10;34.60;;;;;;;-1.54;81.84;102265.85;105071;1258;66377;-63
2024/03/08 04:36:15;;;;;;;58.00;32.90;;;;;;;-1.61;81.73;102262.64;104947;1256;75157;-63
2024/03/08 04:38:41;;;;;;;59.20;32.80;;;;;;;-1.67;81.68;102267.62;104851;1256;139180;-63
2024/03/08 04:41:08;;;;;;;54.20;29.50;;;;;;;-1.77;81.80;102263.23;104978;1260;61200;-63
2024/03/08 04:43:36;;;;;;;53.50;31.60;;;;;;;-1.85;81.59;102264.66;104726;1262;139142;-63
2024/03/08 04:46:03;;;;;;;52.40;29.30;;;;;;;-1.93;81.96;102265.33;104572;1254;65640;-64
2024/03/08 04:48:30;;;;;;;52.40;26.90;;;;;;;-1.98;81.90;102262.71;108689;1254;71100;-64
2024/03/08 04:50:57;;;;;;;48.80;27.20;;;;;;;-2.02;82.15;102266.14;108730;1255;138429;-63
2024/03/08 04:53:24;;;;;;;47.90;27.10;;;;;;;-2.03;81.99;102265.31;108968;1254;60449;-63
2024/03/08 04:55:50;;;;;;;43.30;24.90;;;;;;;-2.06;82.11;102263.98;109036;1255;138901;-63
2024/03/08 04:58:17;;;;;;;44.30;25.10;;;;;;;-2.09;82.19;102262.80;108997;1259;67263;-63
2024/03/08 05:00:44;;;;;;;44.00;23.50;;;;;;;-2.10;82.16;102265.86;109186;1254;71462;-63
2024/03/08 05:03:10;;;;;;;42.20;24.00;;;;;;;-2.10;82.23;102266.70;108910;1255;139144;-64
2024/03/08 05:05:37;;;;;;;46.20;24.60;;;;;;;-2.11;82.25;102260.73;105607;1255;61998;-62
2024/03/08 05:08:05;;;;;;;40.00;22.70;;;;;;;-2.11;82.21;102260.58;104885;1254;139466;-61
2024/03/08 05:10:32;;;;;;;38.30;21.90;;;;;;;-2.11;82.30;102259.56;104966;1254;65113;-62
2024/03/08 05:12:59;;;;;;;39.40;21.90;;;;;;;-2.11;82.47;102256.96;108997;1254;139189;-63
2024/03/08 05:15:26;;;;;;;44.30;21.70;;;;;;;-2.10;82.50;102259.63;108615;1258;59413;-62
2024/03/08 05:17:52;;;;;;;41.30;21.70;;;;;;;-2.09;82.62;102259.91;108431;1257;59599;-63
2024/03/08 05:20:19;;;;;;;42.30;21.70;;;;;;;-2.07;82.71;102258.91;108271;1254;140030;-63
2024/03/08 05:22:46;;;;;;;41.30;21.80;;;;;;;-2.03;82.79;102255.64;108500;1254;64572;-63
2024/03/08 05:25:14;;;;;;;44.90;22.80;;;;;;;-2.01;82.98;102254.21;108590;1254;138746;-62
2024/03/08 05:27:40;;;;;;;45.70;23.30;;;;;;;-1.99;82.79;102252.29;108941;1254;59437;-62
2024/03/08 05:30:13;;;;;;;43.60;23.80;;;;;;;-1.99;82.92;102252.51;109066;1257;60437;-62
2024/03/08 05:32:44;;;;;;;43.80;22.30;;;;;;;-1.97;82.92;102249.45;108835;1254;138558;-62
2024/03/08 05:35:12;;;;;;;41.80;22.30;;;;;;;-1.94;82.99;102246.41;109177;1254;64808;-62
2024/03/08 05:37:42;;;;;;;38.40;21.00;;;;;;;-1.91;83.11;102246.59;109017;1254;140041;-64
2024/03/08 05:40:09;;;;;;;43.40;22.60;;;;;;;-1.84;83.29;102247.59;109069;1254;59677;-63
2024/03/08 05:42:36;;;;;;;41.60;22.90;;;;;;;-1.80;83.27;102247.33;109152;1254;59415;-63
2024/03/08 05:45:04;;;;;;;40.50;20.40;;;;;;;-1.76;83.20;102247.67;109057;1254;139048;-63
2024/03/08 05:47:30;;;;;;;41.50;22.60;;;;;;;-1.74;83.16;102244.61;106423;1258;66197;-63
2024/03/08 05:49:57;;;;;;;43.70;23.30;;;;;;;-1.71;83.14;102247.09;104720;1254;138848;-63
2024/03/08 05:52:24;;;;;;;39.70;21.30;;;;;;;-1.69;83.23;102244.73;104972;1258;61324;-63
2024/03/08 05:54:50;;;;;;;38.10;21.70;;;;;;;-1.66;83.45;102242.80;104656;1255;61283;-62
2024/03/08 05:57:17;;;;;;;38.70;20.30;;;;;;;-1.62;83.42;102239.23;104059;1257;75473;-63
2024/03/08 05:59:44;;;;;;;35.50;20.60;;;;;;;-1.58;83.45;102242.55;104058;1259;68140;-61
2024/03/08 06:02:11;;;;;;;36.70;20.90;;;;;;;-1.51;83.65;102240.48;104013;1254;138705;-64
2024/03/08 06:04:37;;;;;;;36.20;19.90;;;;;;;-1.46;83.59;102240.27;104302;1257;62524;-69
2024/03/08 06:07:04;;;;;;;35.10;20.70;;;;;;;-1.41;83.74;102240.83;104884;1257;139127;-67
2024/03/08 06:09:31;;;;;;;31.00;20.10;;;;;;;-1.34;83.63;102242.65;104896;1260;75338;-66
2024/03/08 06:11:58;;;;;;;34.10;20.80;;;;;;;-1.29;83.66;102245.16;105145;1254;64565;-67
2024/03/08 06:14:24;;;;;;;32.30;19.20;;;;;;;-1.26;83.56;102247.53;104776;1253;138615;-66
2024/03/08 06:16:51;;;;;;;37.30;20.10;;;;;;;-1.21;83.74;102248.41;104624;1258;60856;-66
2024/03/08 06:19:17;;;;;;;37.20;21.10;;;;;;;-1.14;83.74;102249.67;104626;1257;138697;-68
2024/03/08 06:21:45;;;;;;;33.10;18.90;;;;;;;-1.08;83.86;102252.85;104763;1255;77265;-69
2024/03/08 06:24:12;;;;;;;36.60;20.60;;;;;;;-1.03;83.75;102251.60;104898;1254;64553;-70
2024/03/08 06:26:39;;;;;;;35.80;20.90;;;;;;;-0.97;83.79;102253.79;104872;1254;138635;-69
2024/03/08 06:29:08;;;;;;;42.70;22.80;;;;;;;-0.89;83.99;102255.73;104843;1257;61377;-70
2024/03/08 06:31:38;;;;;;;41.10;21.80;;;;;;;-0.80;83.98;102256.77;105107;1258;138825;-70
2024/03/08 06:34:07;;;;;;;34.80;19.10;;;;;;;-0.70;83.95;102253.00;105012;1261;73939;-70
2024/03/08 06:36:34;;;;;;;32.50;19.60;;;;;;;-0.61;83.85;102253.02;105017;1257;65572;-71
2024/03/08 06:39:01;;;;;;;35.20;21.50;;;;;;;-0.49;83.91;102251.34;104907;1255;138480;-70
2024/03/08 06:41:32;;;;;;;38.20;19.60;;;;;;;-0.33;84.13;102252.00;104972;1257;61237;-70
2024/03/08 06:43:59;;;;;;;38.70;20.80;;;;;;;-0.19;84.03;102249.51;104619;1260;138894;-70
2024/03/08 06:46:26;;;;;;;37.20;19.60;;;;;;;-0.07;83.97;102243.51;104766;1254;75563;-70
2024/03/08 06:48:52;;;;;;;34.50;20.40;;;;;;;0.01;83.72;102249.92;104847;1259;138840;-68
2024/03/08 06:51:19;;;;;;;38.40;20.00;;;;;;;0.07;83.54;102249.77;105583;1254;72010;-70
2024/03/08 06:53:46;;;;;;;35.30;18.90;;;;;;;0.13;83.51;102250.86;104988;1254;61271;-69
2024/03/08 06:56:13;;;;;;;34.80;20.00;;;;;;;0.20;83.40;102254.25;104837;1260;138764;-71
2024/03/08 06:58:40;;;;;;;39.80;22.30;;;;;;;0.26;83.50;102250.97;105082;1257;74781;-71
2024/03/08 07:01:07;;;;;;;39.90;21.90;;;;;;;0.31;83.30;102250.43;105038;1260;138933;-70
2024/03/08 07:03:34;;;;;;;38.00;21.60;;;;;;;0.33;83.31;102248.39;105027;1258;73353;-70
2024/03/08 07:06:02;;;;;;;43.30;24.90;;;;;;;0.39;83.21;102245.58;104979;1254;61388;-70
2024/03/08 07:08:29;;;;;;;45.30;23.00;;;;;;;0.42;83.10;102244.97;105700;1260;138469;-70
2024/03/08 07:10:58;;;;;;;37.20;20.30;;;;;;;0.45;83.10;102248.91;104980;1256;75573;-69
2024/03/08 07:13:24;;;;;;;38.80;21.10;;;;;;;0.45;82.94;102245.25;104884;1257;138968;-70
2024/03/08 07:15:52;;;;;;;30.20;19.90;;;;;;;0.47;82.97;102244.25;104941;1260;73197;-70
2024/03/08 07:18:19;;;;;;;31.00;19.20;;;;;;;0.52;83.32;102241.73;106262;1254;61340;-70
2024/03/08 07:20:45;;;;;;;32.50;19.70;;;;;;;0.55;83.10;102242.06;104809;1258;138306;-70
2024/03/08 07:23:45;;;;;;;29.60;18.10;;;;;;;0.59;83.28;102237.91;105052;1256;75422;-70
2024/03/08 07:26:00;;;;;;;36.90;20.10;;;;;;;0.65;83.15;102235.95;104851;1257;138464;-71
2024/03/08 07:28:29;;;;;;;31.70;18.30;;;;;;;0.66;83.19;102233.84;106469;1254;72536;-70
2024/03/08 07:31:26;;;;;;;35.30;20.00;;;;;;;0.71;83.27;102232.20;104979;1254;138201;-70
2024/03/08 07:33:53;;;;;;;32.40;20.50;;;;;;;0.78;83.31;102235.27;105107;1257;61570;-70
2024/03/08 07:36:22;;;;;;;33.00;20.10;;;;;;;0.84;83.33;102230.59;105026;1254;75211;-70
2024/03/08 07:38:48;;;;;;;34.90;21.50;;;;;;;0.89;83.24;102229.66;104989;1261;138338;-70
2024/03/08 07:41:16;;;;;;;39.60;22.50;;;;;;;0.96;83.29;102226.25;105062;1261;72461;-69
2024/03/08 07:43:42;;;;;;;34.00;20.50;;;;;;;1.03;83.43;102223.95;105028;1254;138631;-70
2024/03/08 07:46:10;;;;;;;31.40;20.30;;;;;;;1.10;83.34;102223.99;105007;1256;61241;-70
2024/03/08 07:48:36;;;;;;;39.80;21.30;;;;;;;1.18;83.30;102227.25;105017;1260;74842;-70
2024/03/08 07:51:04;;;;;;;34.60;19.50;;;;;;;1.25;83.30;102227.21;104865;1258;138314;-70
2024/03/08 07:53:31;;;;;;;34.50;21.80;;;;;;;1.32;83.24;102225.41;105273;1259;72889;-70
2024/03/08 07:55:57;;;;;;;35.00;20.70;;;;;;;1.40;83.16;102226.75;104886;1259;139073;-70
2024/03/08 07:58:24;;;;;;;35.50;21.90;;;;;;;1.43;82.88;102226.35;105109;1258;61222;-70
2024/03/08 08:00:51;;;;;;;35.50;21.00;;;;;;;1.47;82.97;102228.95;104950;1257;75576;-71
2024/03/08 08:03:20;;;;;;;42.20;24.10;;;;;;;1.54;83.07;102227.81;104881;1259;138130;-70
2024/03/08 08:05:48;;;;;;;37.20;22.00;;;;;;;1.63;82.89;102224.39;105336;1258;72849;-70
2024/03/08 08:08:15;;;;;;;35.50;21.50;;;;;;;1.69;82.73;102220.95;105590;1254;138362;-70
2024/03/08 08:10:42;;;;;;;33.20;22.00;;;;;;;1.73;82.63;102220.05;105073;1256;61453;-70
2024/03/08 08:13:09;;;;;;;32.70;21.00;;;;;;;1.79;82.62;102217.70;104894;1254;138491;-69
2024/03/08 08:15:35;;;;;;;35.20;20.80;;;;;;;1.84;82.51;102221.07;104865;1257;372099;-69
2024/03/08 08:18:05;;;;;;;32.80;20.60;;;;;;;1.90;82.45;102218.70;106186;1256;72136;-70
2024/03/08 08:20:32;;;;;;;38.80;20.90;;;;;;;1.97;82.60;102217.70;104989;1257;137617;-69
2024/03/08 08:22:59;;;;;;;33.40;20.00;;;;;;;2.03;82.60;102215.41;105191;1258;61754;-69
2024/03/08 08:25:25;;;;;;;39.80;21.90;;;;;;;2.09;82.43;102211.82;105909;1254;138751;-69
2024/03/08 08:27:53;;;;;;;33.00;21.40;;;;;;;2.18;82.60;102210.08;105006;1254;66153;-70
2024/03/08 08:30:20;;;;;;;34.40;20.70;;;;;;;2.28;82.59;102215.36;105040;1254;73382;-70
2024/03/08 08:32:48;;;;;;;36.30;21.80;;;;;;;2.38;82.32;102217.06;105271;1254;138549;-69
2024/03/08 08:35:15;;;;;;;38.10;20.70;;;;;;;2.51;82.48;102219.17;105226;1260;61145;-69
2024/03/08 08:37:42;;;;;;;39.70;20.80;;;;;;;2.65;82.38;102216.85;105268;1257;138358;-71
2024/03/08 08:40:10;;;;;;;29.80;18.90;;;;;;;2.75;82.21;102217.14;104968;1255;66964;-70
2024/03/08 08:42:40;;;;;;;33.10;21.00;;;;;;;2.84;81.99;102216.61;105233;1254;72063;-71
2024/03/08 08:45:10;;;;;;;42.00;22.10;;;;;;;2.94;82.08;102214.50;105066;1254;137655;-70
2024/03/08 08:47:37;;;;;;;36.60;21.60;;;;;;;3.08;82.08;102210.88;105113;1258;61238;-70
2024/03/08 08:50:05;;;;;;;36.80;20.60;;;;;;;3.19;81.87;102211.34;104978;1254;137780;-70
2024/03/08 08:52:32;;;;;;;37.50;20.80;;;;;;;3.28;81.79;102206.56;105230;1254;65552;-70
2024/03/08 08:54:59;;;;;;;37.20;19.50;;;;;;;3.34;81.38;102204.60;104851;1258;137824;-69
2024/03/08 08:57:27;;;;;;;35.10;19.50;;;;;;;3.39;81.20;102208.42;105179;1254;61379;-70
2024/03/08 08:59:55;;;;;;;39.20;21.70;;;;;;;3.41;81.05;102201.67;105052;1256;61511;-71
2024/03/08 09:02:21;;;;;;;33.60;20.60;;;;;;;3.44;80.76;102204.96;104961;1256;138591;-70
2024/03/08 09:04:48;;;;;;;30.60;19.10;;;;;;;3.44;80.47;102198.61;105130;1257;66865;-70
2024/03/08 09:07:16;;;;;;;28.80;20.40;;;;;;;3.51;80.64;102198.73;105033;1258;138517;-70
2024/03/08 09:09:43;;;;;;;36.60;21.20;;;;;;;3.61;80.94;102195.34;105019;1256;61361;-71
2024/03/08 09:12:13;;;;;;;32.60;21.70;;;;;;;3.73;80.87;102198.52;105061;1256;61348;-71
2024/03/08 09:14:41;;;;;;;36.30;21.30;;;;;;;3.83;80.75;102197.36;105004;1255;138277;-69
2024/03/08 09:17:08;;;;;;;33.00;20.60;;;;;;;3.91;80.67;102192.02;105151;1258;66486;-71
2024/03/08 09:19:36;;;;;;;33.10;20.70;;;;;;;3.98;80.52;102186.54;105529;1255;137936;-70
2024/03/08 09:22:04;;;;;;;37.00;21.00;;;;;;;4.02;80.12;102185.22;105126;1255;60562;-70
2024/03/08 09:24:31;;;;;;;34.50;21.30;;;;;;;4.01;79.93;102184.47;105823;1255;61347;-70
2024/03/08 09:27:00;;;;;;;30.80;20.40;;;;;;;4.00;79.82;102179.55;105183;1256;137872;-70
2024/03/08 09:29:28;;;;;;;36.00;20.50;;;;;;;4.02;79.69;102181.41;105128;1259;67031;-70
2024/03/08 09:31:55;;;;;;;32.50;19.80;;;;;;;4.00;79.43;102175.89;104902;1260;138417;-71
2024/03/08 09:34:21;;;;;;;31.10;18.90;;;;;;;3.94;79.08;102174.70;104904;1261;61275;-70
2024/03/08 09:36:48;;;;;;;32.20;19.80;;;;;;;3.84;78.92;102171.23;105070;1255;61341;-70
2024/03/08 09:39:20;;;;;;;28.10;19.30;;;;;;;3.81;78.98;102172.40;104922;1256;138538;-69
2024/03/08 09:41:48;;;;;;;29.10;19.50;;;;;;;3.81;78.90;102169.55;105673;1256;65967;-70
2024/03/08 09:44:19;;;;;;;31.30;20.20;;;;;;;3.81;78.92;102169.04;105307;1255;137661;-70
2024/03/08 09:46:51;;;;;;;31.70;18.70;;;;;;;3.76;78.78;102165.79;105175;1255;61236;-70
2024/03/08 09:49:17;;;;;;;33.70;20.10;;;;;;;3.77;78.91;102165.30;105110;1254;139707;-70
2024/03/08 09:51:44;;;;;;;25.80;17.70;;;;;;;3.80;78.82;102159.63;105176;1255;74365;-70
2024/03/08 09:54:11;;;;;;;28.10;17.60;;;;;;;3.84;78.61;102159.04;105064;1256;65243;-71
2024/03/08 09:56:38;;;;;;;26.60;18.50;;;;;;;3.84;78.31;102157.84;105083;1258;137764;-71
2024/03/08 10:01:34;;;;;;;25.90;18.60;;;;;;;3.87;78.28;102156.34;104746;1254;139128;-69
2024/03/08 10:04:02;;;;;;;27.10;17.10;;;;;;;3.89;78.00;102153.33;105172;1254;75552;-70
2024/03/08 10:06:29;;;;;;;28.50;17.20;;;;;;;3.87;77.71;102151.52;105874;1254;67427;-71
2024/03/08 10:08:56;;;;;;;29.10;18.40;;;;;;;3.90;77.48;102150.27;104938;1254;139150;-71
2024/03/08 10:11:24;;;;;;;26.20;16.00;;;;;;;3.89;77.14;102149.23;105086;1256;62034;-70
2024/03/08 10:13:51;;;;;;;23.70;15.10;;;;;;;3.87;76.79;102145.27;105213;1257;138129;-71
2024/03/08 10:16:18;;;;;;;23.60;15.00;;;;;;;3.90;76.70;102145.29;104834;1255;75617;-71
2024/03/08 10:18:46;;;;;;;23.70;16.10;;;;;;;3.94;76.43;102144.13;105071;1257;67072;-70
2024/03/08 10:21:15;;;;;;;22.30;15.50;;;;;;;3.96;76.39;102145.90;105170;1256;137478;-70
2024/03/08 10:23:45;;;;;;;23.20;14.40;;;;;;;3.98;76.19;102148.78;105244;1254;61282;-69
2024/03/08 10:26:20;;;;;;;19.40;12.90;;;;;;;3.99;75.78;102148.34;105082;1258;138033;-69
2024/03/08 10:28:48;;;;;;;22.50;13.90;;;;;;;3.98;75.27;102144.16;105150;1254;74817;-70
2024/03/08 10:31:15;;;;;;;19.70;13.70;;;;;;;4.02;75.20;102143.73;105277;1255;137929;-69
2024/03/08 10:33:42;;;;;;;22.60;13.30;;;;;;;4.04;74.97;102145.11;104989;1255;71878;-69
2024/03/08 10:36:09;;;;;;;19.00;14.10;;;;;;;4.06;75.04;102145.11;105110;1258;61334;-70
2024/03/08 10:38:37;;;;;;;19.30;13.50;;;;;;;4.10;74.69;102144.84;104819;1255;137668;-70
2024/03/08 10:41:03;;;;;;;22.60;14.10;;;;;;;4.13;74.55;102141.73;105183;1254;75031;-70
2024/03/08 10:43:37;;;;;;;24.30;14.20;;;;;;;4.15;74.38;102139.46;104789;1260;137888;-69
2024/03/08 10:46:32;;;;;;;20.10;13.60;;;;;;;4.18;74.00;102137.39;105217;1254;73367;-69
2024/03/08 10:49:02;;;;;;;18.10;12.40;;;;;;;4.18;73.60;102136.73;105051;1258;138511;-69
2024/03/08 10:51:30;;;;;;;22.20;13.10;;;;;;;4.21;73.31;102131.56;104956;1260;61131;-70
2024/03/08 10:53:57;;;;;;;21.00;12.90;;;;;;;4.25;73.05;102126.86;104871;1260;75905;-70
2024/03/08 10:56:27;;;;;;;17.50;12.40;;;;;;;4.29;72.59;102125.53;104851;1258;137780;-71
2024/03/08 10:58:54;;;;;;;24.70;12.90;;;;;;;4.32;72.56;102124.67;105271;1254;73422;-70
2024/03/08 11:01:21;;;;;;;22.60;13.80;;;;;;;4.34;72.54;102123.42;104896;1255;138124;-70
2024/03/08 11:03:53;;;;;;;21.90;13.90;;;;;;;4.35;72.41;102124.89;105198;1254;61247;-71
2024/03/08 11:06:29;;;;;;;25.90;13.60;;;;;;;4.37;72.18;102122.11;105751;1258;75445;-70